Erie International Tom Ridge Field
KERI : now visible

Airfield :











YOU CAN JOIN US ON...

 
LOGIN :

Register | Disclaimer

   EN    FR    IT 

 









Legend :    VFR   Marginal VFR   IFR   Intensive IFR   Very Intensive IFR
Visi :
Ceiling :
>= 8 km
>= 3000ft
5 to 8 km
1000 to 3000 ft
1500m to 5 km
500 to 1000 ft
800 to 1500m
200 to 500 ft
< 800m
< 200 ft
Symbols :   Thunderstorms  Fog  Heavy snow  Heavy precipitations  Wind > 20 kt






- Airport Elevation : 733 ft
- IATA code : ERI


KERI - Erie International Tom Ridge Field

CURRENT METAR :
  • 071951Z 02007KT 340V050 10SM CLR 26/14 A3014 RMK AO2 SLP203 T02560139

EXPIRED METARs :
  • 071851Z 02012G17KT 10SM CLR 26/14 A3015 RMK AO2 SLP206 T02560139
  • 071751Z 02012KT 10SM CLR 26/15 A3015 RMK AO2 SLP204 T02560150 10256 20183 50000

TAF KERI
Valid from the 07 at 18:00 until the 08 at 18:00 UTC


071721Z 0718/0818 03010KT P6SM SKC
FM080200 05004KT P6SM SKC
KZOB FIR / North America



MET'MAP, your aeronautical weather chart ! - Copyright ORBIFLY December 2007 - Disclaimer

ORBIFLY MET'MAP TEAM :

Programming & Development : Alexandra Zaïnal
Concept & original design : Baudouin d'Aumeries
Assistance for programming : Marc-Olivier Méhu
Technical & hardware support : Manuel Goepfert

Contact : metmap@orbifly.com




SOURCES & CREDITS :

   NOAA       Earth
Advisory